createdAt,value
2023-05-01T00:00:12.063Z,60.74
2023-05-01T00:03:36.273Z,60.59
2023-05-01T00:06:39.386Z,60.70
2023-05-01T00:09:42.282Z,61.05
2023-05-01T00:12:45.035Z,60.85
2023-05-01T00:15:48.925Z,61.13
2023-05-01T00:18:52.558Z,61.13
2023-05-01T00:21:55.265Z,61.41
2023-05-01T00:24:58.026Z,61.46
2023-05-01T00:28:00.968Z,61.75
2023-05-01T00:31:03.937Z,61.60
2023-05-01T00:34:06.763Z,61.78
2023-05-01T00:37:09.617Z,61.81
2023-05-01T00:40:12.600Z,62.02
2023-05-01T00:43:15.661Z,62.12
2023-05-01T00:46:19.206Z,61.86
2023-05-01T00:49:22.114Z,61.75
2023-05-01T00:52:25.087Z,61.89
2023-05-01T00:55:28.413Z,61.93
2023-05-01T00:58:31.543Z,61.69
2023-05-01T01:04:37.589Z,61.47
2023-05-01T01:07:55.825Z,61.44
2023-05-01T01:11:21.639Z,61.49
2023-05-01T01:14:31.220Z,61.44
2023-05-01T01:17:53.564Z,61.08
2023-05-01T01:21:32.180Z,60.89
2023-05-01T01:24:57.522Z,60.87
2023-05-01T01:28:27.609Z,60.80
2023-05-01T01:31:45.882Z,61.13
2023-05-01T01:34:55.245Z,61.43
2023-05-01T01:38:07.304Z,61.50
2023-05-01T01:41:18.030Z,61.51
2023-05-01T01:44:30.859Z,61.62
2023-05-01T01:47:35.314Z,61.68
2023-05-01T01:50:39.235Z,61.52
2023-05-01T01:53:50.574Z,61.51
2023-05-01T01:56:58.440Z,61.58
2023-05-01T02:00:01.181Z,61.62
2023-05-01T02:03:05.997Z,61.72
2023-05-01T02:06:11.379Z,61.89
2023-05-01T02:09:17.104Z,61.91
2023-05-01T02:12:22.975Z,62.21
2023-05-01T02:15:28.059Z,61.92
2023-05-01T02:18:31.642Z,62.49
2023-05-01T02:21:37.430Z,62.44
2023-05-01T02:24:43.734Z,62.70
2023-05-01T02:28:12.424Z,62.60
2023-05-01T02:31:15.323Z,62.75
2023-05-01T02:34:18.112Z,62.86
2023-05-01T02:37:21.273Z,63.09
2023-05-01T02:40:24.773Z,63.32
2023-05-01T02:43:31.022Z,63.02
2023-05-01T02:46:37.455Z,63.22
2023-05-01T02:49:42.194Z,63.54
2023-05-01T02:52:46.405Z,63.64
2023-05-01T02:56:04.464Z,63.55
2023-05-01T02:59:07.168Z,63.80
2023-05-01T03:02:09.941Z,63.96
2023-05-01T03:05:12.689Z,64.41
2023-05-01T03:08:15.682Z,64.19
2023-05-01T03:11:18.496Z,64.44
2023-05-01T03:14:21.215Z,64.32
2023-05-01T03:17:24.180Z,64.73
2023-05-01T03:20:27.611Z,64.86
2023-05-01T03:23:30.681Z,64.79
2023-05-01T03:26:34.118Z,65.08
2023-05-01T03:29:39.690Z,65.50
2023-05-01T03:32:42.445Z,65.75
2023-05-01T03:36:00.594Z,65.78
2023-05-01T03:39:04.984Z,66.33
2023-05-01T03:42:43.090Z,66.47
2023-05-01T03:45:52.314Z,66.83
2023-05-01T03:48:55.622Z,66.80
2023-05-01T03:51:58.635Z,66.49
2023-05-01T03:55:01.551Z,66.18
2023-05-01T03:58:17.442Z,66.04
2023-05-01T04:01:20.642Z,65.60
2023-05-01T04:04:24.747Z,65.24
2023-05-01T04:07:31.907Z,64.54
2023-05-01T04:10:34.715Z,63.85
2023-05-01T04:13:40.229Z,62.99
2023-05-01T04:17:51.567Z,62.31
2023-05-01T04:21:05.839Z,61.65
2023-05-01T04:24:08.941Z,61.25
2023-05-01T04:27:11.909Z,60.45
2023-05-01T04:30:14.702Z,59.83
2023-05-01T04:33:17.670Z,59.42
2023-05-01T04:36:21.074Z,59.17
2023-05-01T04:39:24.213Z,58.65
2023-05-01T04:42:31.625Z,58.28
2023-05-01T04:45:34.847Z,57.59
2023-05-01T04:48:38.084Z,57.20
2023-05-01T04:51:41.485Z,56.86
2023-05-01T04:54:45.779Z,56.35
2023-05-01T04:57:48.910Z,55.85
2023-05-01T05:00:51.722Z,55.55
2023-05-01T05:03:57.253Z,55.23
2023-05-01T05:07:00.496Z,54.96
2023-05-01T05:10:12.121Z,54.17
2023-05-01T05:13:15.881Z,53.83
2023-05-01T05:16:18.943Z,53.59
2023-05-01T05:19:22.738Z,53.46
2023-05-01T05:22:26.258Z,53.35
2023-05-01T05:25:47.903Z,52.34
2023-05-01T05:28:51.065Z,52.02
2023-05-01T05:31:54.047Z,50.82
2023-05-01T05:34:57.433Z,50.67
2023-05-01T05:38:00.983Z,50.69
2023-05-01T05:41:04.715Z,51.06
2023-05-01T05:44:07.598Z,51.03
2023-05-01T05:47:10.770Z,50.52
2023-05-01T05:50:13.614Z,50.71
2023-05-01T05:53:17.122Z,50.31
2023-05-01T05:56:20.261Z,49.66
2023-05-01T05:59:23.544Z,48.50
2023-05-01T06:02:27.075Z,48.48
2023-05-01T06:05:30.191Z,47.68
2023-05-01T06:08:35.406Z,47.09
2023-05-01T06:11:38.507Z,46.93
2023-05-01T06:14:41.360Z,46.82
2023-05-01T06:17:45.052Z,46.74
2023-05-01T06:20:47.908Z,46.71
2023-05-01T06:23:51.090Z,45.50
2023-05-01T06:27:04.245Z,45.66
2023-05-01T06:30:09.397Z,45.04
2023-05-01T06:33:13.414Z,45.38
2023-05-01T06:36:16.630Z,45.12
2023-05-01T06:39:19.606Z,44.50
2023-05-01T06:42:23.075Z,44.40
2023-05-01T06:45:26.367Z,44.24
2023-05-01T06:48:29.205Z,43.17
2023-05-01T06:51:32.307Z,43.48
2023-05-01T06:54:35.075Z,43.57
2023-05-01T06:57:38.083Z,43.04
2023-05-01T07:00:41.143Z,41.96
2023-05-01T07:03:44.526Z,42.46
2023-05-01T07:06:47.466Z,41.68
2023-05-01T07:09:50.426Z,41.53
2023-05-01T07:12:53.248Z,40.76
2023-05-01T07:15:56.100Z,40.46
2023-05-01T07:18:58.944Z,39.99
2023-05-01T07:22:01.743Z,39.64
2023-05-01T07:25:05.082Z,39.23
2023-05-01T07:28:08.376Z,39.29
2023-05-01T07:31:11.269Z,38.83
2023-05-01T07:34:14.220Z,39.55
2023-05-01T07:37:16.957Z,37.92
2023-05-01T07:40:19.656Z,38.65
2023-05-01T07:43:23.130Z,39.40
2023-05-01T07:46:26.028Z,38.50
2023-05-01T07:49:28.977Z,38.81
2023-05-01T07:52:31.745Z,38.45
2023-05-01T07:55:34.538Z,37.78
2023-05-01T07:58:37.798Z,37.87
2023-05-01T08:01:41.658Z,37.18
2023-05-01T08:04:46.166Z,36.91
2023-05-01T08:07:49.157Z,35.78
2023-05-01T08:10:52.392Z,35.80
2023-05-01T08:13:55.749Z,34.84
2023-05-01T08:16:58.519Z,34.39
2023-05-01T08:20:01.539Z,34.94
2023-05-01T08:23:04.744Z,34.90
2023-05-01T08:26:07.523Z,33.75
2023-05-01T08:29:10.337Z,33.35
2023-05-01T08:32:15.454Z,33.48
2023-05-01T08:35:18.169Z,33.36
2023-05-01T08:38:20.942Z,32.43
2023-05-01T08:41:23.949Z,32.75
2023-05-01T08:44:28.090Z,31.61
2023-05-01T08:47:31.774Z,32.53
2023-05-01T08:50:38.749Z,34.27
2023-05-01T08:53:43.634Z,34.80
2023-05-01T08:56:51.426Z,33.25
2023-05-01T08:59:56.495Z,33.54
2023-05-01T09:03:02.226Z,34.27
2023-05-01T09:06:08.051Z,33.70
2023-05-01T09:09:10.974Z,32.79
2023-05-01T09:12:21.479Z,32.64
2023-05-01T09:15:27.049Z,32.80
2023-05-01T09:18:31.284Z,31.92
2023-05-01T09:21:34.534Z,30.39
2023-05-01T09:24:37.619Z,30.37
2023-05-01T09:27:40.614Z,31.61
2023-05-01T09:30:43.454Z,31.40
2023-05-01T09:33:54.919Z,31.64
2023-05-01T09:36:57.647Z,31.03
2023-05-01T09:40:10.752Z,31.77
2023-05-01T09:43:13.706Z,31.76
2023-05-01T09:46:16.966Z,31.57
2023-05-01T09:49:19.805Z,31.80
2023-05-01T09:52:33.730Z,31.04
2023-05-01T09:55:36.529Z,31.29
2023-05-01T09:58:39.335Z,32.61
2023-05-01T10:01:46.526Z,32.81
2023-05-01T10:04:49.542Z,32.84
2023-05-01T10:07:57.426Z,32.75
2023-05-01T10:11:07.717Z,33.15
2023-05-01T10:14:11.167Z,33.28
2023-05-01T10:17:21.253Z,32.97
2023-05-01T10:20:24.681Z,32.47
2023-05-01T10:23:27.649Z,32.14
2023-05-01T10:26:30.381Z,32.15
2023-05-01T10:29:36.815Z,31.13
2023-05-01T10:32:43.041Z,29.84
2023-05-01T10:35:56.105Z,29.54
2023-05-01T10:38:59.230Z,29.78
2023-05-01T10:42:14.899Z,30.32
2023-05-01T10:45:36.390Z,31.24
2023-05-01T10:48:47.985Z,30.98
2023-05-01T10:51:58.097Z,31.57
2023-05-01T10:55:35.661Z,30.97
2023-05-01T10:58:41.288Z,31.01
2023-05-01T11:01:45.873Z,30.94
2023-05-01T11:04:53.479Z,30.91
2023-05-01T11:08:31.652Z,30.44
2023-05-01T11:11:34.348Z,29.14
2023-05-01T11:15:05.673Z,27.52
2023-05-01T11:18:08.963Z,29.09
2023-05-01T11:21:11.860Z,28.70
2023-05-01T11:24:14.745Z,28.38
2023-05-01T11:27:18.283Z,29.41
2023-05-01T11:30:21.918Z,29.69
2023-05-01T11:33:26.228Z,29.03
2023-05-01T11:36:30.723Z,29.22
2023-05-01T11:39:33.434Z,29.69
2023-05-01T11:42:36.388Z,30.28
2023-05-01T11:45:39.278Z,29.08
2023-05-01T11:48:49.558Z,28.71
2023-05-01T11:51:59.726Z,29.88
2023-05-01T11:55:04.057Z,29.23
2023-05-01T11:58:07.480Z,29.77
2023-05-01T12:01:12.869Z,29.91
2023-05-01T12:04:26.490Z,29.35
2023-05-01T12:07:30.823Z,28.24
2023-05-01T12:10:35.501Z,28.46
2023-05-01T12:13:39.841Z,29.10
2023-05-01T12:16:43.345Z,29.36
2023-05-01T12:19:48.915Z,29.30
2023-05-01T12:22:51.958Z,29.23
2023-05-01T12:25:54.780Z,28.43
2023-05-01T12:29:01.409Z,29.17
2023-05-01T12:32:04.349Z,29.48
2023-05-01T12:35:15.582Z,29.46
2023-05-01T12:38:23.055Z,29.20
2023-05-01T12:41:37.897Z,29.91
2023-05-01T12:44:41.396Z,29.79
2023-05-01T12:47:45.166Z,28.94
2023-05-01T12:50:54.645Z,28.88
2023-05-01T12:53:58.297Z,28.62
2023-05-01T12:57:09.352Z,27.62
2023-05-01T13:00:13.322Z,28.05
2023-05-01T13:03:28.350Z,27.87
2023-05-01T13:06:36.003Z,27.71
2023-05-01T13:09:39.454Z,27.96
2023-05-01T13:12:46.348Z,28.11
2023-05-01T13:15:49.330Z,28.79
2023-05-01T13:18:52.797Z,27.94
2023-05-01T13:21:57.610Z,27.89
2023-05-01T13:25:03.157Z,28.61
2023-05-01T13:28:07.797Z,28.55
2023-05-01T13:31:15.100Z,28.37
2023-05-01T13:34:24.650Z,28.26
2023-05-01T13:37:28.372Z,28.47
2023-05-01T13:40:34.266Z,28.46
2023-05-01T13:43:37.798Z,28.59
2023-05-01T13:46:45.392Z,28.19
2023-05-01T13:49:48.829Z,28.23
2023-05-01T13:52:51.638Z,27.97
2023-05-01T13:55:54.501Z,27.83
2023-05-01T13:58:59.812Z,27.48
2023-05-01T14:02:13.535Z,27.43
2023-05-01T14:05:16.898Z,28.23
2023-05-01T14:08:27.311Z,28.23
2023-05-01T14:11:30.732Z,28.88
2023-05-01T14:14:36.319Z,29.03
2023-05-01T14:17:39.280Z,28.63
2023-05-01T14:20:46.805Z,28.77
2023-05-01T14:23:50.547Z,28.33
2023-05-01T14:26:53.273Z,28.30
2023-05-01T14:29:56.255Z,28.75
2023-05-01T14:33:03.806Z,28.43
2023-05-01T14:36:06.845Z,28.40
2023-05-01T14:39:10.128Z,28.48
2023-05-01T14:42:12.867Z,28.37
2023-05-01T14:45:17.290Z,29.11
2023-05-01T14:48:25.008Z,29.20
2023-05-01T14:51:29.321Z,28.95
2023-05-01T14:54:41.925Z,28.92
2023-05-01T14:57:45.151Z,29.31
2023-05-01T15:00:47.852Z,29.38
2023-05-01T15:03:50.734Z,29.36
2023-05-01T15:06:53.919Z,29.77
2023-05-01T15:09:56.794Z,29.54
2023-05-01T15:12:59.537Z,29.61
2023-05-01T15:16:03.259Z,29.54
2023-05-01T15:19:06.169Z,29.55
2023-05-01T15:22:09.041Z,29.09
2023-05-01T15:25:11.834Z,29.05
2023-05-01T15:28:14.775Z,29.29
2023-05-01T15:31:19.435Z,29.50
2023-05-01T15:34:22.360Z,29.59
2023-05-01T15:37:25.557Z,29.50
2023-05-01T15:40:28.274Z,29.26
2023-05-01T15:43:31.092Z,29.39
2023-05-01T15:46:34.637Z,29.39
2023-05-01T15:49:37.477Z,29.48
2023-05-01T15:52:40.246Z,29.80
2023-05-01T15:55:42.952Z,29.72
2023-05-01T15:58:45.672Z,29.59
2023-05-01T16:01:48.802Z,29.82
2023-05-01T16:04:52.832Z,29.84
2023-05-01T16:07:56.241Z,29.83
2023-05-01T16:10:59.084Z,30.26
2023-05-01T16:14:02.347Z,30.17
2023-05-01T16:17:06.799Z,30.31
2023-05-01T16:20:14.389Z,30.18
2023-05-01T16:23:17.489Z,30.21
2023-05-01T16:26:27.943Z,30.03
2023-05-01T16:29:35.213Z,29.88
2023-05-01T16:32:39.701Z,30.64
2023-05-01T16:35:43.064Z,30.77
2023-05-01T16:38:46.903Z,30.51
2023-05-01T16:41:54.168Z,30.79
2023-05-01T16:44:57.146Z,30.94
2023-05-01T16:48:00.120Z,30.75
2023-05-01T16:51:06.100Z,30.92
2023-05-01T16:54:08.898Z,30.97
2023-05-01T16:57:11.660Z,30.83
2023-05-01T17:00:15.960Z,30.91
2023-05-01T17:03:18.797Z,31.07
2023-05-01T17:06:21.692Z,31.31
2023-05-01T17:09:24.554Z,31.44
2023-05-01T17:12:31.414Z,31.60
2023-05-01T17:15:34.150Z,31.87
2023-05-01T17:18:36.865Z,31.98
2023-05-01T17:21:39.888Z,32.21
2023-05-01T17:24:42.639Z,32.43
2023-05-01T17:27:45.577Z,32.69
2023-05-01T17:30:48.401Z,32.86
2023-05-01T17:33:51.244Z,33.02
2023-05-01T17:36:55.265Z,33.06
2023-05-01T17:40:00.387Z,33.06
2023-05-01T17:43:03.553Z,32.91
2023-05-01T17:46:06.551Z,33.07
2023-05-01T17:49:09.523Z,33.10
2023-05-01T17:52:12.395Z,33.18
2023-05-01T17:55:17.945Z,33.23
2023-05-01T17:58:21.458Z,33.32
2023-05-01T18:01:24.245Z,33.50
2023-05-01T18:04:27.045Z,33.58
2023-05-01T18:07:32.632Z,33.78
2023-05-01T18:10:35.413Z,33.59
2023-05-01T18:13:39.780Z,33.71
2023-05-01T18:16:43.294Z,33.84
2023-05-01T18:19:46.246Z,33.88
2023-05-01T18:22:49.041Z,34.05
2023-05-01T18:25:52.132Z,34.29
2023-05-01T18:28:55.589Z,34.40
2023-05-01T18:31:58.716Z,34.94
2023-05-01T18:35:02.955Z,34.80
2023-05-01T18:38:05.803Z,34.80
2023-05-01T18:41:08.592Z,34.65
2023-05-01T18:44:11.385Z,34.76
2023-05-01T18:47:14.206Z,34.98
2023-05-01T18:50:21.591Z,35.10
2023-05-01T18:53:25.219Z,35.08
2023-05-01T18:56:28.334Z,35.92
2023-05-01T18:59:32.092Z,36.33
2023-05-01T19:02:34.892Z,36.70
2023-05-01T19:05:37.890Z,36.89
2023-05-01T19:08:41.270Z,36.93
2023-05-01T19:11:44.033Z,37.56
2023-05-01T19:14:47.004Z,37.38
2023-05-01T19:17:50.044Z,37.61
2023-05-01T19:20:52.921Z,37.57
2023-05-01T19:23:56.519Z,37.93
2023-05-01T19:27:00.521Z,38.75
2023-05-01T19:30:04.099Z,38.90
2023-05-01T19:33:07.092Z,39.14
2023-05-01T19:36:09.937Z,39.38
2023-05-01T19:39:12.913Z,39.65
2023-05-01T19:42:16.091Z,40.50
2023-05-01T19:45:18.885Z,40.61
2023-05-01T19:48:22.094Z,40.54
2023-05-01T19:51:24.826Z,40.72
2023-05-01T19:54:28.574Z,41.80
2023-05-01T19:57:32.315Z,42.21
2023-05-01T20:00:35.762Z,41.85
2023-05-01T20:03:38.824Z,42.33
2023-05-01T20:06:41.650Z,42.32
2023-05-01T20:09:44.524Z,42.60
2023-05-01T20:12:47.550Z,42.71
2023-05-01T20:15:51.485Z,42.47
2023-05-01T20:18:54.353Z,42.48
2023-05-01T20:21:57.073Z,42.36
2023-05-01T20:24:59.996Z,42.35
2023-05-01T20:28:03.807Z,42.44
2023-05-01T20:31:06.674Z,42.50
2023-05-01T20:34:09.690Z,42.47
2023-05-01T20:37:12.445Z,42.50
2023-05-01T20:40:16.558Z,42.87
2023-05-01T20:43:19.619Z,42.89
2023-05-01T20:46:23.033Z,43.16
2023-05-01T20:49:25.902Z,43.11
2023-05-01T20:52:29.302Z,43.13
2023-05-01T20:55:32.124Z,43.11
2023-05-01T20:58:36.259Z,43.14
2023-05-01T21:01:39.244Z,43.14
2023-05-01T21:04:43.014Z,43.07
2023-05-01T21:07:45.844Z,43.19
2023-05-01T21:10:48.588Z,43.56
2023-05-01T21:13:51.450Z,43.51
2023-05-01T21:16:54.920Z,43.53
2023-05-01T21:19:57.986Z,43.82
2023-05-01T21:23:02.034Z,44.14
2023-05-01T21:26:04.827Z,43.96
2023-05-01T21:29:07.778Z,44.28
2023-05-01T21:32:10.534Z,44.20
2023-05-01T21:35:16.670Z,44.29
2023-05-01T21:38:20.934Z,44.38
2023-05-01T21:41:24.194Z,44.62
2023-05-01T21:44:31.044Z,44.75
2023-05-01T21:47:48.468Z,44.98
2023-05-01T21:50:51.432Z,45.22
2023-05-01T21:53:55.596Z,45.30
2023-05-01T21:56:59.936Z,45.87
2023-05-01T22:00:04.753Z,46.05
2023-05-01T22:03:10.981Z,46.25
2023-05-01T22:06:13.896Z,46.64
2023-05-01T22:09:16.654Z,46.67
2023-05-01T22:12:20.157Z,46.69
2023-05-01T22:15:22.896Z,47.16
2023-05-01T22:18:26.920Z,47.14
2023-05-01T22:21:31.800Z,47.49
2023-05-01T22:24:36.251Z,47.38
2023-05-01T22:27:39.232Z,47.61
2023-05-01T22:30:44.328Z,47.49
2023-05-01T22:33:47.846Z,47.76
2023-05-01T22:36:50.600Z,47.84
2023-05-01T22:39:54.006Z,48.18
2023-05-01T22:42:57.161Z,48.29
2023-05-01T22:46:00.170Z,48.06
2023-05-01T22:49:04.300Z,48.07
2023-05-01T22:52:07.261Z,48.18
2023-05-01T22:55:10.556Z,48.04
2023-05-01T22:58:13.303Z,47.94
2023-05-01T23:01:16.212Z,48.12
2023-05-01T23:04:19.102Z,48.07
2023-05-01T23:07:22.299Z,48.03
2023-05-01T23:10:27.366Z,48.06
2023-05-01T23:13:32.281Z,48.09
2023-05-01T23:16:41.634Z,48.16
2023-05-01T23:19:45.649Z,48.25
2023-05-01T23:22:48.506Z,48.43
2023-05-01T23:25:51.318Z,48.33
2023-05-01T23:28:54.058Z,48.59
2023-05-01T23:31:57.129Z,48.68
2023-05-01T23:35:03.798Z,48.72
2023-05-01T23:38:06.548Z,49.00
2023-05-01T23:41:09.714Z,48.94
2023-05-01T23:44:12.602Z,48.84
2023-05-01T23:47:15.500Z,49.21
2023-05-01T23:50:18.402Z,48.82
2023-05-01T23:53:21.396Z,49.06
2023-05-01T23:56:24.324Z,48.83
2023-05-01T23:59:27.098Z,49.05
